Time;durP1;ratioP1;P1;durP2;ratioP2;P2;SDS_P1;SDS_P2;PMS_P1;PMS_P2;Temp;Humidity;BMP_temperature;BMP_pressure;BME280_temperature;BME280_humidity;BME280_pressure;Samples;Min_cycle;Max_cycle;Signal;HPM_P1;HPM_P2
2023/02/26 00:00:12;;;;;;;1.58;0.95;;;10.70;84.00;;;;;;4996782;28;20022;-80
2023/02/26 00:02:37;;;;;;;1.90;0.75;;;10.70;84.10;;;;;;4996777;28;20026;-80
2023/02/26 00:05:05;;;;;;;1.23;0.75;;;10.70;84.10;;;;;;4996138;28;20537;-81
2023/02/26 00:07:30;;;;;;;2.03;0.90;;;10.70;84.10;;;;;;4996345;28;20076;-81
2023/02/26 00:09:56;;;;;;;1.08;0.60;;;10.70;84.10;;;;;;4997412;28;20042;-80
2023/02/26 00:12:21;;;;;;;1.27;0.73;;;10.70;84.10;;;;;;4997163;28;20030;-80
2023/02/26 00:14:47;;;;;;;1.52;0.80;;;10.70;84.10;;;;;;4995630;28;20027;-80
2023/02/26 00:17:39;;;;;;;1.58;0.80;;;10.70;84.10;;;;;;4993392;28;20031;-78
2023/02/26 00:20:07;;;;;;;1.17;0.80;;;10.70;84.60;;;;;;4963739;28;20045;-80
2023/02/26 00:22:33;;;;;;;2.67;1.00;;;10.70;84.10;;;;;;4996543;28;20029;-81
2023/02/26 00:24:59;;;;;;;1.52;0.60;;;10.70;84.10;;;;;;4994677;28;20026;-81
2023/02/26 00:27:24;;;;;;;0.80;0.60;;;10.70;84.10;;;;;;4996382;28;20162;-80
2023/02/26 00:29:50;;;;;;;0.82;0.68;;;10.70;84.10;;;;;;4997497;28;20513;-81
2023/02/26 00:32:16;;;;;;;1.10;0.80;;;10.70;84.10;;;;;;4997965;28;20057;-81
2023/02/26 00:34:44;;;;;;;1.80;0.70;;;10.70;84.20;;;;;;4996103;28;20045;-80
2023/02/26 00:37:33;;;;;;;1.35;0.60;;;10.70;84.10;;;;;;4997984;28;20026;-80
2023/02/26 00:40:18;;;;;;;1.40;0.77;;;10.70;84.10;;;;;;4996704;28;20042;-80
2023/02/26 00:42:44;;;;;;;1.88;0.80;;;10.70;84.10;;;;;;4997575;28;20121;-81
2023/02/26 00:45:12;;;;;;;1.95;0.90;;;10.70;84.10;;;;;;4996168;28;20049;-81
2023/02/26 00:47:41;;;;;;;2.08;0.90;;;10.60;84.10;;;;;;4997857;28;20477;-80
2023/02/26 00:50:18;;;;;;;2.13;0.90;;;10.70;84.20;;;;;;4997424;28;20032;-80
2023/02/26 00:52:49;;;;;;;1.75;0.80;;;10.70;84.10;;;;;;4997040;28;20066;-80
2023/02/26 00:55:15;;;;;;;1.48;0.70;;;10.70;84.10;;;;;;4996656;28;20037;-81
2023/02/26 00:57:40;;;;;;;0.98;0.70;;;10.70;84.20;;;;;;4996419;28;20034;-80
2023/02/26 01:00:07;;;;;;;2.97;1.02;;;10.70;84.20;;;;;;4993415;28;20022;-80
2023/02/26 01:02:37;;;;;;;1.23;0.70;;;10.70;84.10;;;;;;4992725;28;20022;-80
2023/02/26 01:05:03;;;;;;;2.53;0.90;;;10.60;84.00;;;;;;4994750;28;20100;-81
2023/02/26 01:07:38;;;;;;;1.38;0.90;;;10.70;84.20;;;;;;4996373;28;20512;-80
2023/02/26 01:10:04;;;;;;;1.13;0.70;;;10.70;84.20;;;;;;4994923;28;20472;-80
2023/02/26 01:12:30;;;;;;;1.23;0.70;;;10.60;84.10;;;;;;4996271;28;20027;-79
2023/02/26 01:14:56;;;;;;;1.15;0.80;;;10.60;84.20;;;;;;4995271;28;20053;-79
2023/02/26 01:17:32;;;;;;;1.42;0.70;;;10.70;84.10;;;;;;4995431;28;20030;-80
2023/02/26 01:20:04;;;;;;;1.70;0.90;;;10.60;84.10;;;;;;4995839;28;20024;-79
2023/02/26 01:22:41;;;;;;;2.30;0.80;;;10.60;84.10;;;;;;4993984;28;20029;-79
2023/02/26 01:25:10;;;;;;;1.50;0.95;;;10.60;84.10;;;;;;4992867;28;20034;-80
2023/02/26 01:27:36;;;;;;;2.15;0.90;;;10.70;84.20;;;;;;4991752;28;20030;-79
2023/02/26 01:30:04;;;;;;;2.05;0.90;;;10.70;84.10;;;;;;4993386;28;20030;-80
2023/02/26 01:32:58;;;;;;;1.13;0.70;;;10.70;84.10;;;;;;4992878;28;20026;-80
2023/02/26 01:35:47;;;;;;;1.40;0.80;;;10.60;84.10;;;;;;4995712;28;20440;-80
2023/02/26 01:38:27;;;;;;;1.27;0.70;;;10.60;84.20;;;;;;4995833;28;20424;-79
2023/02/26 01:41:04;;;;;;;1.50;0.80;;;10.70;84.10;;;;;;4995916;28;20022;-80
2023/02/26 01:44:13;;;;;;;1.52;0.90;;;10.60;84.00;;;;;;4996544;28;20023;-81
2023/02/26 01:47:11;;;;;;;1.45;0.70;;;10.60;83.90;;;;;;5000618;28;20022;-80
2023/02/26 01:49:37;;;;;;;2.35;1.00;;;10.60;84.00;;;;;;4999438;28;20623;-80
2023/02/26 01:52:26;;;;;;;1.70;0.93;;;10.60;84.00;;;;;;4996658;28;20061;-81
2023/02/26 01:54:52;;;;;;;1.00;0.75;;;10.60;83.90;;;;;;4997988;28;20031;-80
2023/02/26 01:57:20;;;;;;;1.52;0.77;;;10.60;83.80;;;;;;4983234;28;20035;-80
2023/02/26 01:59:49;;;;;;;1.90;0.90;;;10.60;83.90;;;;;;4990568;28;20469;-76
2023/02/26 02:02:21;;;;;;;2.05;0.85;;;10.50;83.80;;;;;;4994996;28;20030;-80
2023/02/26 02:04:48;;;;;;;1.70;0.73;;;10.60;83.90;;;;;;4995011;28;20022;-80
2023/02/26 02:07:14;;;;;;;2.10;0.98;;;10.60;84.00;;;;;;4986005;28;20035;-80
2023/02/26 02:09:41;;;;;;;1.60;0.90;;;10.60;84.00;;;;;;4991819;28;20037;-80
2023/02/26 02:12:24;;;;;;;1.38;0.80;;;10.60;84.00;;;;;;4975596;28;20029;-79
2023/02/26 02:15:15;;;;;;;1.95;0.80;;;10.60;84.10;;;;;;4976694;28;20038;-78
2023/02/26 02:18:19;;;;;;;1.42;0.82;;;10.60;84.00;;;;;;4975440;28;20081;-79
2023/02/26 02:20:59;;;;;;;2.50;1.00;;;10.60;84.10;;;;;;4977139;28;20023;-80
2023/02/26 02:23:49;;;;;;;1.73;0.88;;;10.60;84.10;;;;;;4991690;28;20500;-80
2023/02/26 02:26:30;;;;;;;1.65;0.80;;;10.60;84.00;;;;;;4976475;28;20053;-79
2023/02/26 02:29:20;;;;;;;1.35;0.70;;;10.60;84.10;;;;;;4975599;28;20134;-80
2023/02/26 02:32:05;;;;;;;2.80;0.70;;;10.60;84.10;;;;;;4976554;28;20023;-80
2023/02/26 02:34:53;;;;;;;2.35;1.00;;;10.60;84.10;;;;;;4991349;28;20062;-80
2023/02/26 02:37:28;;;;;;;2.47;0.90;;;10.60;84.10;;;;;;4991932;28;20030;-80
2023/02/26 02:40:10;;;;;;;2.05;0.95;;;10.60;84.10;;;;;;4976936;28;20082;-80
2023/02/26 02:42:50;;;;;;;2.03;0.80;;;10.60;84.10;;;;;;4975289;28;20023;-79
2023/02/26 02:45:26;;;;;;;1.93;0.90;;;10.60;84.10;;;;;;4976201;28;20033;-80
2023/02/26 02:48:00;;;;;;;1.55;0.90;;;10.60;84.10;;;;;;4976586;28;20046;-80
2023/02/26 02:50:40;;;;;;;1.77;0.90;;;10.60;84.10;;;;;;4976653;28;20038;-80
2023/02/26 02:53:09;;;;;;;2.17;0.90;;;10.60;84.20;;;;;;4978230;28;20034;-81
2023/02/26 02:55:39;;;;;;;1.55;0.73;;;10.60;84.10;;;;;;4976860;28;20374;-80
2023/02/26 02:58:16;;;;;;;1.67;0.80;;;10.60;84.20;;;;;;4995147;28;20122;-81
2023/02/26 03:00:47;;;;;;;1.30;0.77;;;10.60;84.20;;;;;;4995283;28;20061;-81
2023/02/26 03:03:22;;;;;;;;;;;10.60;84.20;;;;;;4978985;28;20034;-80
2023/02/26 03:05:48;;;;;;;1.42;0.70;;;10.60;84.20;;;;;;4979847;28;19906;-80
2023/02/26 03:08:17;;;;;;;1.27;0.73;;;10.60;84.10;;;;;;4975772;28;20039;-80
2023/02/26 03:10:43;;;;;;;1.25;0.80;;;10.60;84.20;;;;;;5020986;23;20420;-84
2023/02/26 03:13:16;;;;;;;2.10;1.00;;;10.60;84.20;;;;;;4993710;28;20034;-84
2023/02/26 03:16:09;;;;;;;1.58;0.80;;;10.60;84.20;;;;;;4993784;28;20026;-83
2023/02/26 03:18:48;;;;;;;2.60;0.80;;;10.60;84.20;;;;;;4994491;28;20584;-84
2023/02/26 03:21:39;;;;;;;2.13;1.05;;;10.60;84.20;;;;;;4995175;28;20021;-85
2023/02/26 03:24:12;;;;;;;1.30;0.73;;;10.60;84.10;;;;;;4993981;28;20026;-84
2023/02/26 03:26:53;;;;;;;1.90;0.90;;;10.50;84.10;;;;;;4994560;28;20493;-83
2023/02/26 03:29:47;;;;;;;1.45;0.80;;;10.60;84.10;;;;;;4994389;28;20030;-83
2023/02/26 03:32:25;;;;;;;1.30;0.70;;;10.50;84.20;;;;;;4993911;28;20129;-83
2023/02/26 03:35:03;;;;;;;1.98;0.80;;;10.60;84.20;;;;;;4993549;28;20113;-83
2023/02/26 03:37:46;;;;;;;1.17;0.73;;;10.60;84.20;;;;;;4994101;28;20030;-83
2023/02/26 03:40:36;;;;;;;1.38;0.70;;;10.50;84.20;;;;;;4994907;28;20029;-83
2023/02/26 03:43:10;;;;;;;1.23;0.70;;;10.60;84.20;;;;;;4995173;28;20389;-83
2023/02/26 03:45:38;;;;;;;1.63;0.75;;;10.60;84.20;;;;;;4993773;28;20109;-83
2023/02/26 03:48:07;;;;;;;0.90;0.60;;;10.60;84.30;;;;;;4993784;28;20028;-84
2023/02/26 03:50:56;;;;;;;2.10;0.80;;;10.60;84.20;;;;;;4993695;28;20033;-83
2023/02/26 03:53:25;;;;;;;1.10;0.70;;;10.50;84.10;;;;;;4993557;28;20022;-84
2023/02/26 03:55:58;;;;;;;1.83;0.80;;;10.60;84.30;;;;;;4993782;28;20675;-83
2023/02/26 03:58:23;;;;;;;1.52;0.80;;;10.50;84.20;;;;;;4992739;28;20026;-82
2023/02/26 04:00:56;;;;;;;1.42;0.77;;;10.60;84.20;;;;;;4990022;28;20033;-83
2023/02/26 04:03:27;;;;;;;1.38;0.80;;;10.50;84.10;;;;;;4974135;28;20023;-84
2023/02/26 04:05:53;;;;;;;1.60;0.90;;;10.50;84.80;;;;;;4975256;28;20033;-83
2023/02/26 04:08:22;;;;;;;1.20;0.77;;;10.60;84.30;;;;;;4975613;28;20059;-82
2023/02/26 04:10:58;;;;;;;1.52;0.63;;;10.60;84.30;;;;;;4975027;28;20043;-83
2023/02/26 04:13:24;;;;;;;1.50;0.90;;;10.50;84.20;;;;;;4973613;28;20027;-83
2023/02/26 04:15:50;;;;;;;1.83;0.90;;;10.60;84.30;;;;;;4973484;28;20031;-83
2023/02/26 04:18:16;;;;;;;2.85;0.93;;;10.50;84.20;;;;;;4973200;28;20034;-84
2023/02/26 04:20:41;;;;;;;1.63;0.90;;;10.50;84.20;;;;;;4973440;28;20027;-83
2023/02/26 04:23:07;;;;;;;1.25;0.85;;;10.60;84.20;;;;;;4973319;28;20033;-83
2023/02/26 04:25:32;;;;;;;1.90;0.80;;;10.50;84.20;;;;;;4973200;28;20053;-83
2023/02/26 04:27:58;;;;;;;1.70;0.80;;;10.50;84.20;;;;;;4973318;28;20512;-83
2023/02/26 04:30:23;;;;;;;1.27;0.70;;;10.60;84.30;;;;;;4974635;28;20034;-84
2023/02/26 04:32:49;;;;;;;2.40;0.85;;;10.50;84.20;;;;;;4973264;28;20030;-83
2023/02/26 04:35:14;;;;;;;1.75;0.75;;;10.50;84.20;;;;;;4973043;28;20026;-83
2023/02/26 04:37:40;;;;;;;0.73;0.60;;;10.50;84.20;;;;;;4973218;28;20058;-83
2023/02/26 04:40:06;;;;;;;1.20;0.70;;;10.50;84.30;;;;;;4973204;28;20493;-84
2023/02/26 04:42:31;;;;;;;0.85;0.70;;;10.50;84.30;;;;;;4973218;28;20081;-84
2023/02/26 04:44:57;;;;;;;1.92;0.70;;;10.50;84.20;;;;;;4974143;28;20019;-84
2023/02/26 04:47:22;;;;;;;1.50;0.70;;;10.50;84.70;;;;;;4974421;28;20408;-84
2023/02/26 04:49:48;;;;;;;1.58;0.70;;;10.50;84.30;;;;;;4972790;28;20119;-84
2023/02/26 04:52:13;;;;;;;1.65;0.70;;;10.50;84.20;;;;;;4972893;28;20034;-84
2023/02/26 04:54:40;;;;;;;1.85;0.82;;;10.50;84.30;;;;;;4973202;28;20030;-84
2023/02/26 04:57:05;;;;;;;1.88;0.90;;;10.50;84.20;;;;;;4973336;28;20034;-83
2023/02/26 04:59:31;;;;;;;0.85;0.68;;;10.50;84.30;;;;;;4973038;28;20023;-84
2023/02/26 05:01:57;;;;;;;2.03;0.93;;;10.50;84.20;;;;;;4974508;28;20079;-83
2023/02/26 05:04:22;;;;;;;1.65;0.82;;;10.50;84.30;;;;;;4972941;28;20109;-84
2023/02/26 05:06:48;;;;;;;1.95;0.80;;;10.50;84.30;;;;;;4972985;28;20128;-84
2023/02/26 05:09:13;;;;;;;0.80;0.63;;;10.50;84.30;;;;;;4972019;28;20035;-83
2023/02/26 05:11:39;;;;;;;1.60;0.90;;;10.50;84.30;;;;;;4974197;28;20149;-84
2023/02/26 05:14:04;;;;;;;2.25;0.88;;;10.50;84.30;;;;;;4972749;28;20027;-84
2023/02/26 05:16:30;;;;;;;1.63;0.88;;;10.50;84.20;;;;;;4973098;28;20026;-83
2023/02/26 05:18:55;;;;;;;0.95;0.75;;;10.50;84.30;;;;;;4972360;28;20396;-84
2023/02/26 05:21:21;;;;;;;1.20;0.70;;;10.50;84.30;;;;;;4972925;28;20015;-82
2023/02/26 05:23:46;;;;;;;2.20;0.70;;;10.50;84.30;;;;;;4972666;28;20026;-84
2023/02/26 05:26:12;;;;;;;1.38;0.80;;;10.50;84.20;;;;;;4974031;28;20397;-84
2023/02/26 05:28:38;;;;;;;0.70;0.52;;;10.50;84.30;;;;;;4974505;28;20044;-84
2023/02/26 05:31:03;;;;;;;1.55;0.77;;;10.50;84.20;;;;;;4972865;28;20023;-83
2023/02/26 05:33:29;;;;;;;1.38;0.63;;;10.50;84.30;;;;;;4974240;28;20239;-84
2023/02/26 05:35:55;;;;;;;1.90;0.80;;;10.50;84.30;;;;;;4972653;28;20058;-83
2023/02/26 05:38:21;;;;;;;1.38;0.70;;;10.50;84.30;;;;;;4972647;28;20026;-83
2023/02/26 05:40:46;;;;;;;1.88;0.95;;;10.50;84.30;;;;;;4972603;28;20022;-84
2023/02/26 05:43:11;;;;;;;1.10;0.70;;;10.50;84.30;;;;;;4972471;28;20027;-84
2023/02/26 05:45:37;;;;;;;2.08;0.93;;;10.50;84.30;;;;;;4973305;28;20047;-84
2023/02/26 05:48:02;;;;;;;1.63;0.90;;;10.50;84.30;;;;;;4972404;28;20143;-83
2023/02/26 05:50:29;;;;;;;1.92;0.80;;;10.50;84.30;;;;;;4972367;28;20397;-84
2023/02/26 05:52:55;;;;;;;2.45;0.80;;;10.50;84.30;;;;;;4972536;28;20027;-83
2023/02/26 05:55:21;;;;;;;2.00;0.88;;;10.50;84.30;;;;;;4972088;28;20034;-84
2023/02/26 05:57:46;;;;;;;1.45;0.80;;;10.50;84.30;;;;;;4973723;28;20110;-84
2023/02/26 06:00:12;;;;;;;2.20;0.80;;;10.50;84.30;;;;;;4990596;28;20122;-83
2023/02/26 06:02:38;;;;;;;1.10;0.70;;;10.40;84.20;;;;;;4992562;28;20401;-84
2023/02/26 06:05:04;;;;;;;2.10;0.70;;;10.50;84.30;;;;;;4992415;28;20060;-84
2023/02/26 06:07:29;;;;;;;1.35;0.98;;;10.50;84.30;;;;;;4992119;28;20042;-84
2023/02/26 06:09:55;;;;;;;1.27;0.70;;;10.50;84.30;;;;;;4991882;28;20030;-83
2023/02/26 06:12:20;;;;;;;1.00;0.63;;;10.50;84.30;;;;;;4992103;28;20439;-84
2023/02/26 06:14:46;;;;;;;1.17;0.65;;;10.50;84.40;;;;;;4988866;28;20117;-84
2023/02/26 06:17:11;;;;;;;1.58;0.80;;;10.40;84.20;;;;;;4988958;28;20550;-84
2023/02/26 06:19:37;;;;;;;1.38;0.70;;;10.50;84.20;;;;;;4994367;28;20054;-83
2023/02/26 06:22:02;;;;;;;1.15;0.80;;;10.50;84.30;;;;;;4997034;28;20030;-83
2023/02/26 06:24:28;;;;;;;1.38;0.80;;;10.50;84.30;;;;;;4995449;28;20018;-84
2023/02/26 06:26:53;;;;;;;1.85;0.80;;;10.50;84.30;;;;;;4996959;28;20389;-83
2023/02/26 06:29:19;;;;;;;0.60;0.60;;;10.50;84.30;;;;;;4995171;28;20121;-84
2023/02/26 06:31:45;;;;;;;1.52;0.60;;;10.40;84.30;;;;;;4996884;28;20546;-84
2023/02/26 06:34:11;;;;;;;1.10;0.80;;;10.50;84.20;;;;;;4996732;28;20126;-84
2023/02/26 06:36:36;;;;;;;1.30;0.63;;;10.40;84.20;;;;;;4995452;28;20084;-83
2023/02/26 06:39:02;;;;;;;1.83;0.88;;;10.50;84.30;;;;;;4995133;28;20035;-83
2023/02/26 06:41:28;;;;;;;1.42;0.73;;;10.40;84.20;;;;;;4995144;28;20054;-83
2023/02/26 06:43:54;;;;;;;1.45;0.70;;;10.40;84.20;;;;;;4994631;28;20072;-82
2023/02/26 06:46:19;;;;;;;2.25;0.75;;;10.40;84.20;;;;;;4994578;28;20060;-83
2023/02/26 06:48:45;;;;;;;1.08;0.60;;;10.50;84.20;;;;;;4995853;28;20038;-83
2023/02/26 06:51:10;;;;;;;2.35;0.90;;;10.50;84.10;;;;;;4994565;28;20026;-82
2023/02/26 06:53:36;;;;;;;0.93;0.70;;;10.50;84.00;;;;;;4994634;28;20092;-83
2023/02/26 06:56:02;;;;;;;1.52;0.68;;;10.50;83.90;;;;;;4994832;28;20484;-82
2023/02/26 06:58:27;;;;;;;1.08;0.75;;;10.50;83.90;;;;;;4994967;28;20038;-83
2023/02/26 07:01:01;;;;;;;1.65;0.80;;;10.60;83.80;;;;;;4995990;28;20018;-81
2023/02/26 09:29:41;;;;;;;1.50;0.80;;;12.20;79.30;;;;;;5931197;23;20574;-79
2023/02/26 10:28:47;;;;;;;1.17;0.50;;;12.40;78.10;;;;;;5274137;23;20034;-79
2023/02/26 10:38:03;;;;;;;0.98;0.50;;;12.50;78.00;;;;;;5051733;23;20096;-86
2023/02/26 10:40:32;;;;;;;1.27;0.60;;;12.50;78.60;;;;;;4983537;28;20026;-83
2023/02/26 10:43:02;;;;;;;1.75;0.60;;;12.50;78.20;;;;;;4979467;28;20094;-82
2023/02/26 10:46:12;;;;;;;1.63;0.60;;;12.50;78.00;;;;;;4980927;28;20175;-77
2023/02/26 10:49:07;;;;;;;0.80;0.50;;;12.50;78.40;;;;;;4921309;29;20036;-83
2023/02/26 10:51:38;;;;;;;2.03;0.80;;;12.50;78.30;;;;;;4964259;28;20396;-81
2023/02/26 10:54:23;;;;;;;1.48;0.60;;;12.50;78.20;;;;;;4958432;28;20125;-78
2023/02/26 10:56:48;;;;;;;1.48;0.60;;;12.50;78.10;;;;;;4952482;29;20031;-79
2023/02/26 10:59:14;;;;;;;1.83;0.65;;;12.50;78.30;;;;;;4942954;28;20603;-77
2023/02/26 11:01:40;;;;;;;2.05;0.70;;;12.60;78.80;;;;;;4954903;28;20019;-79
2023/02/26 11:04:21;;;;;;;1.23;0.60;;;12.60;78.00;;;;;;4972559;28;20533;-79
2023/02/26 11:06:56;;;;;;;1.60;0.73;;;12.60;77.70;;;;;;4956066;28;20034;-82
2023/02/26 11:09:27;;;;;;;1.25;0.60;;;12.60;77.80;;;;;;4957633;28;20033;-81
2023/02/26 11:12:19;;;;;;;1.55;0.68;;;12.60;77.80;;;;;;4957768;28;20416;-80
2023/02/26 11:14:47;;;;;;;4.68;0.80;;;12.50;75.10;;;;;;4957265;28;20500;-81
2023/02/26 11:17:26;;;;;;;8.52;1.63;;;12.40;72.40;;;;;;4993845;28;20433;-80
2023/02/26 11:19:59;;;;;;;5.13;1.02;;;12.50;72.90;;;;;;4994943;28;20027;-79
2023/02/26 11:22:28;;;;;;;6.25;1.08;;;12.50;71.90;;;;;;4976620;28;20201;-79
2023/02/26 11:24:55;;;;;;;7.93;1.10;;;12.40;71.20;;;;;;4975634;28;20066;-80
2023/02/26 11:27:28;;;;;;;8.73;0.80;;;12.40;72.10;;;;;;4974739;28;20030;-82
2023/02/26 11:30:01;;;;;;;3.55;0.80;;;12.40;72.90;;;;;;4970472;28;20038;-76
2023/02/26 11:32:36;;;;;;;7.43;1.20;;;12.30;73.20;;;;;;4954898;28;20027;-77
2023/02/26 11:35:02;;;;;;;6.25;0.90;;;12.20;73.70;;;;;;4955398;28;20741;-80
2023/02/26 11:37:32;;;;;;;6.45;1.00;;;12.20;74.20;;;;;;4973375;28;20162;-77
2023/02/26 11:40:09;;;;;;;4.82;1.00;;;12.10;74.50;;;;;;4972347;28;20015;-78
2023/02/26 11:42:38;;;;;;;5.60;0.93;;;12.10;75.20;;;;;;4955940;28;20088;-79
2023/02/26 11:45:05;;;;;;;3.08;0.93;;;12.10;75.30;;;;;;4972245;28;20034;-78
2023/02/26 11:47:33;;;;;;;4.38;0.82;;;12.10;75.60;;;;;;4955245;28;20027;-77
2023/02/26 11:50:09;;;;;;;3.40;0.85;;;12.00;75.30;;;;;;4972400;28;20027;-78
2023/02/26 11:52:44;;;;;;;2.50;0.80;;;12.00;75.70;;;;;;4953080;28;20485;-78
2023/02/26 11:55:20;;;;;;;4.35;1.00;;;12.00;75.90;;;;;;4950785;29;20051;-79
2023/02/26 11:57:52;;;;;;;3.40;0.90;;;12.00;76.00;;;;;;4951245;28;20039;-79
2023/02/26 12:00:30;;;;;;;3.78;1.10;;;11.90;76.20;;;;;;4936010;29;20019;-78
2023/02/26 12:03:03;;;;;;;2.78;1.17;;;11.90;76.30;;;;;;4936174;29;20405;-81
2023/02/26 12:05:28;;;;;;;3.58;0.90;;;11.90;76.40;;;;;;4953131;28;20649;-79
2023/02/26 12:07:54;;;;;;;3.60;1.10;;;11.90;76.30;;;;;;4952102;29;20034;-78
2023/02/26 12:10:31;;;;;;;3.85;1.00;;;11.90;76.40;;;;;;4952113;29;20039;-78
2023/02/26 12:13:17;;;;;;;3.97;0.80;;;11.90;76.80;;;;;;4952182;28;20031;-77
2023/02/26 12:16:00;;;;;;;2.42;0.70;;;11.80;76.80;;;;;;4951843;29;20375;-77
2023/02/26 12:18:42;;;;;;;2.53;0.90;;;11.80;76.90;;;;;;4951389;28;20038;-80
2023/02/26 12:21:38;;;;;;;2.60;0.90;;;11.80;76.90;;;;;;4934401;29;20030;-80
2023/02/26 12:24:14;;;;;;;2.33;0.70;;;11.80;77.10;;;;;;4938893;28;20573;-78
2023/02/26 12:26:58;;;;;;;3.70;0.60;;;11.80;76.90;;;;;;4990290;28;20030;-79
2023/02/26 12:29:32;;;;;;;4.03;0.90;;;11.80;77.00;;;;;;4972717;28;20041;-79
2023/02/26 12:32:16;;;;;;;3.70;0.88;;;11.80;76.90;;;;;;4992582;28;20089;-79
2023/02/26 12:35:02;;;;;;;6.47;1.58;;;11.80;76.90;;;;;;4963437;28;20246;-81
2023/02/26 12:37:51;;;;;;;2.72;0.90;;;11.80;76.90;;;;;;4934890;28;20117;-78
2023/02/26 12:40:35;;;;;;;3.33;1.05;;;11.80;76.60;;;;;;4953492;28;20068;-79
2023/02/26 12:43:15;;;;;;;2.83;0.70;;;11.80;76.90;;;;;;4954439;28;20042;-78
2023/02/26 12:45:56;;;;;;;2.58;0.60;;;11.70;76.70;;;;;;4956453;28;20038;-83
2023/02/26 12:48:46;;;;;;;3.70;0.82;;;11.80;76.90;;;;;;4959865;28;20027;-82
2023/02/26 12:51:40;;;;;;;2.58;0.80;;;11.80;76.90;;;;;;4977244;28;20508;-80
2023/02/26 12:54:21;;;;;;;1.98;0.70;;;11.80;76.80;;;;;;4977215;28;20031;-80
2023/02/26 12:56:53;;;;;;;;;;;11.90;76.80;;;;;;4957017;28;20041;-80
2023/02/26 12:59:27;;;;;;;3.90;0.85;;;11.90;76.80;;;;;;4974124;28;19917;-80
2023/02/26 13:02:07;;;;;;;2.88;0.80;;;11.90;76.60;;;;;;4975444;28;20018;-79
2023/02/26 13:04:55;;;;;;;3.42;0.80;;;12.00;76.60;;;;;;4978066;28;20022;-79
2023/02/26 13:07:32;;;;;;;2.55;0.70;;;11.90;76.50;;;;;;4977820;28;20030;-79
2023/02/26 13:10:19;;;;;;;2.92;0.98;;;11.90;76.70;;;;;;4962072;28;20405;-81
2023/02/26 13:13:24;;;;;;;1.85;0.80;;;11.90;76.80;;;;;;4959228;28;20054;-81
2023/02/26 13:16:19;;;;;;;2.92;0.80;;;11.80;77.00;;;;;;4959255;28;20058;-85
2023/02/26 13:18:50;;;;;;;4.28;0.80;;;11.90;76.90;;;;;;4959249;28;20493;-81
2023/02/26 13:21:23;;;;;;;;;;;11.80;76.80;;;;;;4976200;28;20031;-82
2023/02/26 13:23:59;;;;;;;12.60;1.75;;;11.80;75.20;;;;;;4957749;28;19906;-82
2023/02/26 13:26:26;;;;;;;11.40;1.40;;;11.80;74.10;;;;;;4958029;28;20030;-81
2023/02/26 13:29:03;;;;;;;10.20;1.40;;;11.80;75.40;;;;;;4973752;28;20030;-83
2023/02/26 13:31:51;;;;;;;10.68;1.40;;;11.90;75.50;;;;;;4965410;28;20027;-84
2023/02/26 13:34:41;;;;;;;7.75;1.20;;;11.90;75.70;;;;;;4965083;28;20031;-83
2023/02/26 13:37:17;;;;;;;2.03;0.80;;;11.90;75.90;;;;;;4979294;28;20035;-83
2023/02/26 13:39:46;;;;;;;5.88;1.00;;;12.00;75.80;;;;;;4978296;28;20489;-83
2023/02/26 13:42:30;;;;;;;8.13;1.20;;;12.00;75.90;;;;;;4979862;28;20033;-80
2023/02/26 13:45:21;;;;;;;2.45;0.75;;;12.00;76.10;;;;;;4960831;28;20413;-81
2023/02/26 13:47:58;;;;;;;6.25;0.90;;;12.00;76.50;;;;;;4981346;28;20120;-83
2023/02/26 13:50:55;;;;;;;5.07;0.93;;;12.00;76.40;;;;;;4963789;28;20121;-84
2023/02/26 13:53:26;;;;;;;4.82;0.93;;;12.10;76.80;;;;;;4963428;28;20062;-82
2023/02/26 13:55:53;;;;;;;6.18;1.25;;;12.20;76.70;;;;;;4963963;28;20035;-82
2023/02/26 13:58:22;;;;;;;3.90;1.00;;;12.20;76.90;;;;;;4980369;28;20039;-79
2023/02/26 14:01:06;;;;;;;3.95;0.90;;;12.20;76.30;;;;;;4977137;28;20110;-81
2023/02/26 14:04:12;;;;;;;5.18;0.90;;;12.30;76.20;;;;;;4961355;28;20484;-82
2023/02/26 14:06:47;;;;;;;4.88;0.90;;;12.30;76.30;;;;;;4954005;28;20026;-82
2023/02/26 14:09:21;;;;;;;4.20;0.77;;;12.20;76.10;;;;;;4978640;28;20023;-82
2023/02/26 14:12:21;;;;;;;4.70;1.00;;;12.20;75.40;;;;;;4978847;28;20033;-82
2023/02/26 14:14:59;;;;;;;3.13;0.77;;;12.20;75.70;;;;;;4978145;28;20032;-83
2023/02/26 14:17:49;;;;;;;3.13;0.77;;;12.20;75.10;;;;;;4962019;28;20090;-81
2023/02/26 14:20:18;;;;;;;4.38;1.00;;;12.20;74.40;;;;;;4960262;28;20086;-76
2023/02/26 14:22:49;;;;;;;5.72;0.80;;;12.10;74.40;;;;;;4976778;28;20460;-78
2023/02/26 14:25:38;;;;;;;3.70;0.83;;;12.10;74.70;;;;;;4978569;28;20102;-80
2023/02/26 14:28:28;;;;;;;3.22;0.80;;;12.10;75.00;;;;;;4960489;28;20273;-79
2023/02/26 14:31:16;;;;;;;4.00;0.70;;;12.10;75.00;;;;;;4977185;28;20027;-79
2023/02/26 14:34:02;;;;;;;2.92;0.88;;;12.10;75.20;;;;;;4959698;28;20061;-79
2023/02/26 14:36:34;;;;;;;3.13;0.70;;;12.00;75.30;;;;;;4976519;28;20478;-78
2023/02/26 14:39:03;;;;;;;3.70;0.80;;;12.00;75.30;;;;;;4959200;28;20031;-79
2023/02/26 14:41:35;;;;;;;3.80;0.82;;;12.00;75.20;;;;;;4958900;28;20401;-79
2023/02/26 14:44:21;;;;;;;2.50;0.98;;;12.00;75.50;;;;;;4958475;28;20134;-78
2023/02/26 14:46:48;;;;;;;4.20;0.95;;;12.00;75.40;;;;;;4976372;28;20031;-78
2023/02/26 14:49:35;;;;;;;2.97;0.70;;;11.90;75.50;;;;;;4959081;28;20027;-79
2023/02/26 14:52:09;;;;;;;2.38;0.70;;;11.90;75.50;;;;;;4976348;28;20030;-80
2023/02/26 14:55:31;;;;;;;1.85;0.70;;;11.90;75.30;;;;;;4959038;28;20409;-79
2023/02/26 14:58:19;;;;;;;2.92;0.80;;;11.90;75.70;;;;;;4897625;29;20029;-78
2023/02/26 15:00:56;;;;;;;3.50;0.95;;;11.90;75.60;;;;;;4900703;29;20029;-79
2023/02/26 15:03:31;;;;;;;1.58;0.75;;;11.80;75.70;;;;;;4964063;28;20042;-80
2023/02/26 15:06:38;;;;;;;3.03;0.77;;;11.80;75.90;;;;;;4975958;28;20093;-79
2023/02/26 15:09:18;;;;;;;2.20;0.80;;;11.80;75.70;;;;;;4976185;28;20030;-80
2023/02/26 15:12:20;;;;;;;2.73;0.70;;;11.70;75.90;;;;;;4976435;28;20023;-79
2023/02/26 15:15:12;;;;;;;1.35;0.70;;;11.70;76.00;;;;;;4958354;28;20031;-78
2023/02/26 15:18:05;;;;;;;3.08;1.00;;;11.70;76.10;;;;;;4969964;28;20035;-77
2023/02/26 15:20:52;;;;;;;1.35;0.63;;;11.70;76.20;;;;;;4975610;28;20034;-78
2023/02/26 15:23:34;;;;;;;1.95;0.70;;;11.70;76.20;;;;;;4958489;28;20066;-79
2023/02/26 15:26:01;;;;;;;1.88;0.75;;;11.70;76.40;;;;;;4976240;28;20062;-79
2023/02/26 15:28:31;;;;;;;3.17;0.70;;;11.70;76.30;;;;;;4975621;28;20039;-79
2023/02/26 15:30:59;;;;;;;2.53;0.80;;;11.60;76.30;;;;;;4975802;28;20053;-79
2023/02/26 15:33:25;;;;;;;2.28;0.70;;;11.60;76.20;;;;;;4958195;28;20071;-79
2023/02/26 15:35:53;;;;;;;1.55;0.60;;;11.60;76.20;;;;;;4975374;28;20493;-78
2023/02/26 15:38:19;;;;;;;2.40;0.50;;;11.60;76.20;;;;;;4957920;28;20117;-78
2023/02/26 15:40:48;;;;;;;2.15;0.60;;;11.60;76.00;;;;;;4958039;28;20555;-78
2023/02/26 15:43:15;;;;;;;2.30;0.70;;;11.60;76.10;;;;;;4975267;28;20037;-78
2023/02/26 15:45:47;;;;;;;2.05;0.70;;;11.60;76.00;;;;;;4974898;28;20026;-78
2023/02/26 15:48:36;;;;;;;2.58;0.77;;;11.60;76.30;;;;;;4958095;28;20038;-79
2023/02/26 15:51:05;;;;;;;2.40;0.70;;;11.50;76.60;;;;;;4957867;28;20031;-78
2023/02/26 15:53:39;;;;;;;1.30;0.73;;;11.50;76.60;;;;;;4957626;28;20559;-78
2023/02/26 15:56:09;;;;;;;3.30;0.90;;;11.50;76.80;;;;;;4979130;28;20034;-82
2023/02/26 15:58:44;;;;;;;1.50;0.70;;;11.50;76.90;;;;;;4962876;28;20041;-82
2023/02/26 16:01:19;;;;;;;1.83;0.75;;;11.50;76.90;;;;;;4960951;28;20023;-81
2023/02/26 16:03:45;;;;;;;1.65;0.65;;;11.50;77.10;;;;;;4960698;28;20389;-81
2023/02/26 16:06:24;;;;;;;3.45;0.70;;;11.50;76.80;;;;;;4975234;28;20058;-80
2023/02/26 16:08:50;;;;;;;2.67;0.90;;;11.50;77.40;;;;;;4958912;28;20062;-79
2023/02/26 16:11:17;;;;;;;2.00;0.82;;;11.40;77.40;;;;;;4976846;28;20031;-80
2023/02/26 16:13:44;;;;;;;0.93;0.57;;;11.40;77.30;;;;;;4960000;28;20081;-81
2023/02/26 16:16:20;;;;;;;1.63;0.60;;;11.40;76.90;;;;;;4959773;28;20030;-81
2023/02/26 16:18:46;;;;;;;1.98;0.70;;;11.40;77.20;;;;;;4976871;28;20050;-81
2023/02/26 16:21:24;;;;;;;1.05;0.60;;;11.40;77.10;;;;;;4976987;28;20061;-79
2023/02/26 16:23:53;;;;;;;1.65;0.60;;;11.40;76.50;;;;;;4977201;28;20031;-82
2023/02/26 16:26:30;;;;;;;2.35;0.80;;;11.40;76.90;;;;;;4958265;28;20023;-76
2023/02/26 16:29:04;;;;;;;1.55;0.70;;;11.40;77.00;;;;;;4955071;28;20027;-80
2023/02/26 16:31:32;;;;;;;0.95;0.60;;;11.30;77.00;;;;;;4976297;28;20034;-80
2023/02/26 16:33:57;;;;;;;1.85;0.70;;;11.30;76.30;;;;;;4957290;28;20027;-80
2023/02/26 16:39:24;;;;;;;1.60;0.50;;;11.30;76.90;;;;;;4915178;29;20099;-86
2023/02/26 16:42:13;;;;;;;1.73;0.85;;;11.30;76.70;;;;;;4915562;29;20063;-86
2023/02/26 16:44:46;;;;;;;1.58;0.82;;;11.30;77.10;;;;;;4899220;29;20024;-84
2023/02/26 16:47:11;;;;;;;1.20;0.50;;;11.30;76.90;;;;;;4899882;29;20031;-84
2023/02/26 16:49:40;;;;;;;1.38;0.55;;;11.30;77.00;;;;;;4900219;29;20064;-82
2023/02/26 16:52:06;;;;;;;1.55;0.60;;;11.30;77.10;;;;;;4915611;29;20471;-85
2023/02/26 16:54:37;;;;;;;2.33;0.73;;;11.30;77.10;;;;;;4916869;29;20115;-85